sensor_id;sensor_type;location;lat;lon;timestamp;P1;durP1;ratioP1;P2;durP2;ratioP2
54959;SDS011;40860;51.710;8.736;2022-12-29T00:00:55;2.25;;;1.30;;
54959;SDS011;40860;51.710;8.736;2022-12-29T00:05:01;0.90;;;0.90;;
54959;SDS011;40860;51.710;8.736;2022-12-29T00:09:04;1.40;;;0.90;;
54959;SDS011;40860;51.710;8.736;2022-12-29T00:13:07;1.02;;;0.80;;
54959;SDS011;40860;51.710;8.736;2022-12-29T00:17:29;1.33;;;1.08;;
54959;SDS011;40860;51.710;8.736;2022-12-29T00:21:32;1.00;;;0.90;;
54959;SDS011;40860;51.710;8.736;2022-12-29T00:25:52;0.80;;;0.80;;
54959;SDS011;40860;51.710;8.736;2022-12-29T00:30:15;0.80;;;0.80;;
54959;SDS011;40860;51.710;8.736;2022-12-29T00:34:37;0.88;;;0.73;;
54959;SDS011;40860;51.710;8.736;2022-12-29T00:38:59;0.82;;;0.82;;
54959;SDS011;40860;51.710;8.736;2022-12-29T00:43:22;0.75;;;0.75;;
54959;SDS011;40860;51.710;8.736;2022-12-29T00:47:42;0.63;;;0.50;;
54959;SDS011;40860;51.710;8.736;2022-12-29T00:51:46;0.70;;;0.70;;
54959;SDS011;40860;51.710;8.736;2022-12-29T00:55:49;0.63;;;0.63;;
54959;SDS011;40860;51.710;8.736;2022-12-29T00:59:52;0.70;;;0.70;;
54959;SDS011;40860;51.710;8.736;2022-12-29T01:03:55;0.63;;;0.63;;
54959;SDS011;40860;51.710;8.736;2022-12-29T01:08:05;1.23;;;0.70;;
54959;SDS011;40860;51.710;8.736;2022-12-29T01:12:08;2.60;;;0.90;;
54959;SDS011;40860;51.710;8.736;2022-12-29T01:16:12;0.88;;;0.70;;
54959;SDS011;40860;51.710;8.736;2022-12-29T01:20:15;1.40;;;0.70;;
54959;SDS011;40860;51.710;8.736;2022-12-29T01:24:19;0.73;;;0.70;;
54959;SDS011;40860;51.710;8.736;2022-12-29T01:28:23;0.93;;;0.65;;
54959;SDS011;40860;51.710;8.736;2022-12-29T01:32:26;0.55;;;0.55;;
54959;SDS011;40860;51.710;8.736;2022-12-29T01:36:29;0.77;;;0.60;;
54959;SDS011;40860;51.710;8.736;2022-12-29T01:40:33;0.55;;;0.55;;
54959;SDS011;40860;51.710;8.736;2022-12-29T01:44:47;0.73;;;0.70;;
54959;SDS011;40860;51.710;8.736;2022-12-29T01:48:54;0.40;;;0.40;;
54959;SDS011;40860;51.710;8.736;2022-12-29T01:53:02;0.60;;;0.50;;
54959;SDS011;40860;51.710;8.736;2022-12-29T01:57:10;0.47;;;0.47;;
54959;SDS011;40860;51.710;8.736;2022-12-29T02:01:18;0.50;;;0.47;;
54959;SDS011;40860;51.710;8.736;2022-12-29T02:05:24;0.68;;;0.45;;
54959;SDS011;40860;51.710;8.736;2022-12-29T02:09:34;0.88;;;0.40;;
54959;SDS011;40860;51.710;8.736;2022-12-29T02:13:39;0.90;;;0.45;;
54959;SDS011;40860;51.710;8.736;2022-12-29T02:17:45;1.25;;;0.47;;
54959;SDS011;40860;51.710;8.736;2022-12-29T02:22:02;0.40;;;0.35;;
54959;SDS011;40860;51.710;8.736;2022-12-29T02:30:37;0.30;;;0.30;;
54959;SDS011;40860;51.710;8.736;2022-12-29T02:34:47;0.40;;;0.40;;
54959;SDS011;40860;51.710;8.736;2022-12-29T02:38:59;1.00;;;0.55;;
54959;SDS011;40860;51.710;8.736;2022-12-29T02:43:14;0.30;;;0.30;;
54959;SDS011;40860;51.710;8.736;2022-12-29T02:47:27;0.43;;;0.30;;
54959;SDS011;40860;51.710;8.736;2022-12-29T02:56:15;0.43;;;0.30;;
54959;SDS011;40860;51.710;8.736;2022-12-29T03:00:21;0.30;;;0.30;;
54959;SDS011;40860;51.710;8.736;2022-12-29T03:04:26;0.40;;;0.40;;
54959;SDS011;40860;51.710;8.736;2022-12-29T03:08:36;0.85;;;0.40;;
54959;SDS011;40860;51.710;8.736;2022-12-29T03:12:54;0.45;;;0.32;;
54959;SDS011;40860;51.710;8.736;2022-12-29T03:17:24;0.68;;;0.30;;
54959;SDS011;40860;51.710;8.736;2022-12-29T03:21:34;0.38;;;0.38;;
54959;SDS011;40860;51.710;8.736;2022-12-29T03:25:59;0.82;;;0.40;;
54959;SDS011;40860;51.710;8.736;2022-12-29T03:30:07;0.88;;;0.40;;
54959;SDS011;40860;51.710;8.736;2022-12-29T03:38:24;0.90;;;0.50;;
54959;SDS011;40860;51.710;8.736;2022-12-29T03:42:33;1.23;;;0.60;;
54959;SDS011;40860;51.710;8.736;2022-12-29T03:46:38;0.63;;;0.50;;
54959;SDS011;40860;51.710;8.736;2022-12-29T03:50:41;0.80;;;0.45;;
54959;SDS011;40860;51.710;8.736;2022-12-29T03:54:46;1.85;;;0.47;;
54959;SDS011;40860;51.710;8.736;2022-12-29T03:58:49;0.45;;;0.40;;
54959;SDS011;40860;51.710;8.736;2022-12-29T04:02:57;0.57;;;0.40;;
54959;SDS011;40860;51.710;8.736;2022-12-29T04:07:02;0.70;;;0.70;;
54959;SDS011;40860;51.710;8.736;2022-12-29T04:11:13;0.30;;;0.30;;
54959;SDS011;40860;51.710;8.736;2022-12-29T04:15:16;0.50;;;0.40;;
54959;SDS011;40860;51.710;8.736;2022-12-29T04:19:19;1.08;;;0.47;;
54959;SDS011;40860;51.710;8.736;2022-12-29T04:23:23;1.90;;;0.50;;
54959;SDS011;40860;51.710;8.736;2022-12-29T04:27:29;0.73;;;0.40;;
54959;SDS011;40860;51.710;8.736;2022-12-29T04:31:57;0.55;;;0.38;;
54959;SDS011;40860;51.710;8.736;2022-12-29T04:36:10;0.40;;;0.40;;
54959;SDS011;40860;51.710;8.736;2022-12-29T04:40:13;1.38;;;0.63;;
54959;SDS011;40860;51.710;8.736;2022-12-29T04:44:18;0.30;;;0.30;;
54959;SDS011;40860;51.710;8.736;2022-12-29T04:48:36;0.63;;;0.38;;
54959;SDS011;40860;51.710;8.736;2022-12-29T04:52:47;0.20;;;0.20;;
54959;SDS011;40860;51.710;8.736;2022-12-29T04:56:50;0.20;;;0.20;;
54959;SDS011;40860;51.710;8.736;2022-12-29T05:00:55;1.38;;;0.40;;
54959;SDS011;40860;51.710;8.736;2022-12-29T05:05:00;0.43;;;0.30;;
54959;SDS011;40860;51.710;8.736;2022-12-29T05:09:04;0.95;;;0.30;;
54959;SDS011;40860;51.710;8.736;2022-12-29T05:13:08;0.57;;;0.57;;
54959;SDS011;40860;51.710;8.736;2022-12-29T05:17:12;0.43;;;0.38;;
54959;SDS011;40860;51.710;8.736;2022-12-29T05:21:16;0.40;;;0.20;;
54959;SDS011;40860;51.710;8.736;2022-12-29T05:25:19;0.15;;;0.10;;
54959;SDS011;40860;51.710;8.736;2022-12-29T05:29:33;0.30;;;0.30;;
54959;SDS011;40860;51.710;8.736;2022-12-29T05:33:37;0.20;;;0.20;;
54959;SDS011;40860;51.710;8.736;2022-12-29T05:37:40;0.65;;;0.20;;
54959;SDS011;40860;51.710;8.736;2022-12-29T05:41:44;0.30;;;0.30;;
54959;SDS011;40860;51.710;8.736;2022-12-29T05:45:49;1.38;;;0.32;;
54959;SDS011;40860;51.710;8.736;2022-12-29T05:50:08;0.28;;;0.28;;
54959;SDS011;40860;51.710;8.736;2022-12-29T05:54:45;0.30;;;0.30;;
54959;SDS011;40860;51.710;8.736;2022-12-29T05:58:51;0.40;;;0.40;;
54959;SDS011;40860;51.710;8.736;2022-12-29T06:02:55;0.30;;;0.30;;
54959;SDS011;40860;51.710;8.736;2022-12-29T06:07:01;0.73;;;0.40;;
54959;SDS011;40860;51.710;8.736;2022-12-29T06:11:15;0.50;;;0.30;;
54959;SDS011;40860;51.710;8.736;2022-12-29T06:15:24;2.28;;;0.40;;
54959;SDS011;40860;51.710;8.736;2022-12-29T06:19:28;0.82;;;0.30;;
54959;SDS011;40860;51.710;8.736;2022-12-29T06:23:32;0.32;;;0.20;;
54959;SDS011;40860;51.710;8.736;2022-12-29T06:27:35;0.15;;;0.15;;
54959;SDS011;40860;51.710;8.736;2022-12-29T06:31:38;1.10;;;0.30;;
54959;SDS011;40860;51.710;8.736;2022-12-29T06:35:42;1.55;;;0.35;;
54959;SDS011;40860;51.710;8.736;2022-12-29T06:39:49;1.02;;;0.50;;
54959;SDS011;40860;51.710;8.736;2022-12-29T06:43:53;0.50;;;0.40;;
54959;SDS011;40860;51.710;8.736;2022-12-29T06:48:03;1.23;;;0.30;;
54959;SDS011;40860;51.710;8.736;2022-12-29T06:52:06;0.65;;;0.32;;
54959;SDS011;40860;51.710;8.736;2022-12-29T06:56:14;0.73;;;0.40;;
54959;SDS011;40860;51.710;8.736;2022-12-29T07:00:17;0.85;;;0.40;;
54959;SDS011;40860;51.710;8.736;2022-12-29T07:04:23;1.02;;;0.32;;
54959;SDS011;40860;51.710;8.736;2022-12-29T07:08:26;0.57;;;0.40;;
54959;SDS011;40860;51.710;8.736;2022-12-29T07:12:30;0.65;;;0.35;;
54959;SDS011;40860;51.710;8.736;2022-12-29T07:16:33;0.47;;;0.40;;
54959;SDS011;40860;51.710;8.736;2022-12-29T07:20:36;0.30;;;0.28;;
54959;SDS011;40860;51.710;8.736;2022-12-29T07:24:53;0.75;;;0.40;;
54959;SDS011;40860;51.710;8.736;2022-12-29T07:28:57;1.08;;;0.47;;
54959;SDS011;40860;51.710;8.736;2022-12-29T07:33:02;0.73;;;0.32;;
54959;SDS011;40860;51.710;8.736;2022-12-29T07:37:04;0.40;;;0.40;;
54959;SDS011;40860;51.710;8.736;2022-12-29T07:41:07;0.20;;;0.15;;
54959;SDS011;40860;51.710;8.736;2022-12-29T07:45:12;0.60;;;0.32;;
54959;SDS011;40860;51.710;8.736;2022-12-29T07:49:35;0.57;;;0.40;;
54959;SDS011;40860;51.710;8.736;2022-12-29T07:53:38;1.05;;;0.52;;
54959;SDS011;40860;51.710;8.736;2022-12-29T08:01:48;0.60;;;0.40;;
54959;SDS011;40860;51.710;8.736;2022-12-29T08:05:51;0.65;;;0.40;;
54959;SDS011;40860;51.710;8.736;2022-12-29T08:09:54;0.73;;;0.40;;
54959;SDS011;40860;51.710;8.736;2022-12-29T08:13:57;0.52;;;0.30;;
54959;SDS011;40860;51.710;8.736;2022-12-29T08:18:02;0.80;;;0.30;;
54959;SDS011;40860;51.710;8.736;2022-12-29T08:22:05;1.58;;;0.50;;
54959;SDS011;40860;51.710;8.736;2022-12-29T08:26:08;2.05;;;1.33;;
54959;SDS011;40860;51.710;8.736;2022-12-29T08:30:12;1.27;;;0.68;;
54959;SDS011;40860;51.710;8.736;2022-12-29T08:34:17;2.17;;;0.57;;
54959;SDS011;40860;51.710;8.736;2022-12-29T08:38:19;1.45;;;0.50;;
54959;SDS011;40860;51.710;8.736;2022-12-29T08:42:22;2.22;;;0.80;;
54959;SDS011;40860;51.710;8.736;2022-12-29T08:46:26;1.15;;;0.88;;
54959;SDS011;40860;51.710;8.736;2022-12-29T08:50:30;1.10;;;0.50;;
54959;SDS011;40860;51.710;8.736;2022-12-29T08:54:33;0.95;;;0.40;;
54959;SDS011;40860;51.710;8.736;2022-12-29T08:58:36;0.93;;;0.57;;
54959;SDS011;40860;51.710;8.736;2022-12-29T09:02:39;0.68;;;0.40;;
54959;SDS011;40860;51.710;8.736;2022-12-29T09:06:43;2.55;;;0.40;;
54959;SDS011;40860;51.710;8.736;2022-12-29T09:10:47;0.47;;;0.30;;
54959;SDS011;40860;51.710;8.736;2022-12-29T09:14:50;0.95;;;0.50;;
54959;SDS011;40860;51.710;8.736;2022-12-29T09:18:52;1.23;;;0.40;;
54959;SDS011;40860;51.710;8.736;2022-12-29T09:22:57;1.52;;;0.68;;
54959;SDS011;40860;51.710;8.736;2022-12-29T09:27:02;2.30;;;0.50;;
54959;SDS011;40860;51.710;8.736;2022-12-29T09:31:05;0.45;;;0.25;;
54959;SDS011;40860;51.710;8.736;2022-12-29T09:35:08;2.00;;;0.70;;
54959;SDS011;40860;51.710;8.736;2022-12-29T09:39:13;2.38;;;0.70;;
54959;SDS011;40860;51.710;8.736;2022-12-29T09:43:25;2.38;;;0.50;;
54959;SDS011;40860;51.710;8.736;2022-12-29T09:47:44;1.02;;;0.60;;
54959;SDS011;40860;51.710;8.736;2022-12-29T09:51:49;2.13;;;0.63;;
54959;SDS011;40860;51.710;8.736;2022-12-29T09:55:58;2.05;;;0.73;;
54959;SDS011;40860;51.710;8.736;2022-12-29T10:00:09;1.30;;;0.80;;
54959;SDS011;40860;51.710;8.736;2022-12-29T10:04:18;3.92;;;1.02;;
54959;SDS011;40860;51.710;8.736;2022-12-29T10:08:25;1.95;;;0.90;;
54959;SDS011;40860;51.710;8.736;2022-12-29T10:12:42;0.90;;;0.60;;
54959;SDS011;40860;51.710;8.736;2022-12-29T10:16:59;2.03;;;1.08;;
54959;SDS011;40860;51.710;8.736;2022-12-29T10:21:08;1.95;;;0.90;;
54959;SDS011;40860;51.710;8.736;2022-12-29T10:25:20;2.20;;;1.10;;
54959;SDS011;40860;51.710;8.736;2022-12-29T10:29:36;1.40;;;0.95;;
54959;SDS011;40860;51.710;8.736;2022-12-29T10:33:42;4.30;;;1.17;;
54959;SDS011;40860;51.710;8.736;2022-12-29T10:37:49;4.93;;;1.42;;
54959;SDS011;40860;51.710;8.736;2022-12-29T10:41:59;1.83;;;1.00;;
54959;SDS011;40860;51.710;8.736;2022-12-29T10:46:09;2.47;;;1.13;;
54959;SDS011;40860;51.710;8.736;2022-12-29T10:50:15;2.60;;;1.08;;
54959;SDS011;40860;51.710;8.736;2022-12-29T10:54:19;2.45;;;0.95;;
54959;SDS011;40860;51.710;8.736;2022-12-29T10:58:25;2.15;;;0.70;;
54959;SDS011;40860;51.710;8.736;2022-12-29T11:02:43;2.80;;;1.13;;
54959;SDS011;40860;51.710;8.736;2022-12-29T11:07:02;3.97;;;1.02;;
54959;SDS011;40860;51.710;8.736;2022-12-29T11:11:14;2.53;;;0.93;;
54959;SDS011;40860;51.710;8.736;2022-12-29T11:15:27;2.00;;;0.95;;
54959;SDS011;40860;51.710;8.736;2022-12-29T11:19:41;2.05;;;0.88;;
54959;SDS011;40860;51.710;8.736;2022-12-29T11:23:44;2.97;;;1.10;;
54959;SDS011;40860;51.710;8.736;2022-12-29T11:27:59;2.17;;;0.90;;
54959;SDS011;40860;51.710;8.736;2022-12-29T11:32:10;3.00;;;1.23;;
54959;SDS011;40860;51.710;8.736;2022-12-29T11:36:16;2.58;;;1.20;;
54959;SDS011;40860;51.710;8.736;2022-12-29T11:40:22;2.47;;;0.80;;
54959;SDS011;40860;51.710;8.736;2022-12-29T11:44:25;3.75;;;0.80;;
54959;SDS011;40860;51.710;8.736;2022-12-29T11:48:29;3.75;;;1.30;;
54959;SDS011;40860;51.710;8.736;2022-12-29T11:52:36;3.05;;;1.20;;
54959;SDS011;40860;51.710;8.736;2022-12-29T11:56:41;3.50;;;1.30;;
54959;SDS011;40860;51.710;8.736;2022-12-29T12:00:47;4.70;;;1.20;;
54959;SDS011;40860;51.710;8.736;2022-12-29T12:04:53;5.20;;;1.55;;
54959;SDS011;40860;51.710;8.736;2022-12-29T12:09:04;3.08;;;0.95;;
54959;SDS011;40860;51.710;8.736;2022-12-29T12:13:17;5.97;;;1.40;;
54959;SDS011;40860;51.710;8.736;2022-12-29T12:17:29;3.85;;;1.10;;
54959;SDS011;40860;51.710;8.736;2022-12-29T12:21:40;3.90;;;1.40;;
54959;SDS011;40860;51.710;8.736;2022-12-29T12:25:50;4.63;;;1.35;;
54959;SDS011;40860;51.710;8.736;2022-12-29T12:30:00;2.90;;;1.25;;
54959;SDS011;40860;51.710;8.736;2022-12-29T12:34:06;6.68;;;1.45;;
54959;SDS011;40860;51.710;8.736;2022-12-29T12:38:16;3.70;;;1.10;;
54959;SDS011;40860;51.710;8.736;2022-12-29T12:42:35;3.63;;;1.30;;
54959;SDS011;40860;51.710;8.736;2022-12-29T12:46:52;3.47;;;1.20;;
54959;SDS011;40860;51.710;8.736;2022-12-29T12:51:13;6.15;;;1.20;;
54959;SDS011;40860;51.710;8.736;2022-12-29T12:55:30;4.03;;;0.93;;
54959;SDS011;40860;51.710;8.736;2022-12-29T12:59:51;3.97;;;1.10;;
54959;SDS011;40860;51.710;8.736;2022-12-29T13:04:03;3.38;;;1.60;;
54959;SDS011;40860;51.710;8.736;2022-12-29T13:08:29;5.63;;;1.50;;
54959;SDS011;40860;51.710;8.736;2022-12-29T13:12:46;1.77;;;1.27;;
54959;SDS011;40860;51.710;8.736;2022-12-29T13:16:57;5.95;;;1.30;;
54959;SDS011;40860;51.710;8.736;2022-12-29T13:21:09;7.70;;;1.80;;
54959;SDS011;40860;51.710;8.736;2022-12-29T13:25:27;3.88;;;1.77;;
54959;SDS011;40860;51.710;8.736;2022-12-29T13:29:36;5.75;;;1.65;;
54959;SDS011;40860;51.710;8.736;2022-12-29T13:33:51;5.30;;;1.92;;
54959;SDS011;40860;51.710;8.736;2022-12-29T13:38:03;5.70;;;1.60;;
54959;SDS011;40860;51.710;8.736;2022-12-29T13:42:12;5.25;;;1.65;;
54959;SDS011;40860;51.710;8.736;2022-12-29T13:46:16;4.53;;;1.45;;
54959;SDS011;40860;51.710;8.736;2022-12-29T13:50:25;4.15;;;1.08;;
54959;SDS011;40860;51.710;8.736;2022-12-29T13:54:34;4.50;;;1.50;;
54959;SDS011;40860;51.710;8.736;2022-12-29T13:58:43;4.35;;;0.90;;
54959;SDS011;40860;51.710;8.736;2022-12-29T14:03:01;8.45;;;1.42;;
54959;SDS011;40860;51.710;8.736;2022-12-29T14:07:23;5.90;;;1.23;;
54959;SDS011;40860;51.710;8.736;2022-12-29T14:11:29;4.85;;;1.50;;
54959;SDS011;40860;51.710;8.736;2022-12-29T14:15:36;5.55;;;1.88;;
54959;SDS011;40860;51.710;8.736;2022-12-29T14:19:42;3.42;;;1.42;;
54959;SDS011;40860;51.710;8.736;2022-12-29T14:23:49;4.65;;;1.25;;
54959;SDS011;40860;51.710;8.736;2022-12-29T14:27:55;4.95;;;1.30;;
54959;SDS011;40860;51.710;8.736;2022-12-29T14:31:58;3.85;;;1.48;;
54959;SDS011;40860;51.710;8.736;2022-12-29T14:36:19;6.05;;;3.15;;
54959;SDS011;40860;51.710;8.736;2022-12-29T14:40:25;4.07;;;1.55;;
54959;SDS011;40860;51.710;8.736;2022-12-29T14:44:28;6.03;;;1.75;;
54959;SDS011;40860;51.710;8.736;2022-12-29T14:48:33;2.83;;;1.30;;
54959;SDS011;40860;51.710;8.736;2022-12-29T14:52:44;6.85;;;1.33;;
54959;SDS011;40860;51.710;8.736;2022-12-29T14:56:51;5.65;;;1.60;;
54959;SDS011;40860;51.710;8.736;2022-12-29T15:00:55;5.13;;;1.67;;
54959;SDS011;40860;51.710;8.736;2022-12-29T15:04:59;6.45;;;1.95;;
54959;SDS011;40860;51.710;8.736;2022-12-29T15:09:04;3.70;;;1.40;;
54959;SDS011;40860;51.710;8.736;2022-12-29T15:13:20;5.82;;;1.23;;
54959;SDS011;40860;51.710;8.736;2022-12-29T15:17:26;8.38;;;1.40;;
54959;SDS011;40860;51.710;8.736;2022-12-29T15:21:30;5.45;;;1.40;;
54959;SDS011;40860;51.710;8.736;2022-12-29T15:25:35;6.78;;;1.88;;
54959;SDS011;40860;51.710;8.736;2022-12-29T15:29:41;3.80;;;1.30;;
54959;SDS011;40860;51.710;8.736;2022-12-29T15:33:46;3.55;;;1.58;;
54959;SDS011;40860;51.710;8.736;2022-12-29T15:37:50;5.95;;;1.70;;
54959;SDS011;40860;51.710;8.736;2022-12-29T15:41:53;4.55;;;1.30;;
54959;SDS011;40860;51.710;8.736;2022-12-29T15:46:02;4.03;;;1.50;;
54959;SDS011;40860;51.710;8.736;2022-12-29T15:50:06;3.05;;;1.00;;
54959;SDS011;40860;51.710;8.736;2022-12-29T15:54:24;5.65;;;1.40;;
54959;SDS011;40860;51.710;8.736;2022-12-29T15:58:39;4.45;;;1.70;;
54959;SDS011;40860;51.710;8.736;2022-12-29T16:02:47;3.78;;;0.90;;
54959;SDS011;40860;51.710;8.736;2022-12-29T16:06:54;3.70;;;1.27;;
54959;SDS011;40860;51.710;8.736;2022-12-29T16:10:59;5.40;;;1.38;;
54959;SDS011;40860;51.710;8.736;2022-12-29T16:15:04;2.60;;;0.90;;
54959;SDS011;40860;51.710;8.736;2022-12-29T16:19:16;3.17;;;0.80;;
54959;SDS011;40860;51.710;8.736;2022-12-29T16:23:24;4.20;;;1.23;;
54959;SDS011;40860;51.710;8.736;2022-12-29T16:27:31;3.65;;;1.00;;
54959;SDS011;40860;51.710;8.736;2022-12-29T16:31:47;4.07;;;1.20;;
54959;SDS011;40860;51.710;8.736;2022-12-29T16:35:54;4.72;;;1.80;;
54959;SDS011;40860;51.710;8.736;2022-12-29T16:40:13;4.60;;;2.10;;
54959;SDS011;40860;51.710;8.736;2022-12-29T16:44:30;2.83;;;1.15;;
54959;SDS011;40860;51.710;8.736;2022-12-29T16:48:33;3.17;;;1.00;;
54959;SDS011;40860;51.710;8.736;2022-12-29T16:52:40;1.92;;;0.60;;
54959;SDS011;40860;51.710;8.736;2022-12-29T16:56:43;1.48;;;0.80;;
54959;SDS011;40860;51.710;8.736;2022-12-29T17:00:46;4.07;;;1.02;;
54959;SDS011;40860;51.710;8.736;2022-12-29T17:04:49;2.85;;;0.93;;
54959;SDS011;40860;51.710;8.736;2022-12-29T17:08:55;1.17;;;0.63;;
54959;SDS011;40860;51.710;8.736;2022-12-29T17:12:58;2.10;;;0.70;;
54959;SDS011;40860;51.710;8.736;2022-12-29T17:17:01;3.22;;;0.77;;
54959;SDS011;40860;51.710;8.736;2022-12-29T17:21:06;5.60;;;1.25;;
54959;SDS011;40860;51.710;8.736;2022-12-29T17:25:12;2.13;;;0.85;;
54959;SDS011;40860;51.710;8.736;2022-12-29T17:29:18;4.45;;;1.00;;
54959;SDS011;40860;51.710;8.736;2022-12-29T17:33:25;2.75;;;0.95;;
54959;SDS011;40860;51.710;8.736;2022-12-29T17:37:33;2.17;;;0.90;;
54959;SDS011;40860;51.710;8.736;2022-12-29T17:41:38;1.40;;;0.75;;
54959;SDS011;40860;51.710;8.736;2022-12-29T17:45:41;2.58;;;0.90;;
54959;SDS011;40860;51.710;8.736;2022-12-29T17:49:45;5.13;;;1.38;;
54959;SDS011;40860;51.710;8.736;2022-12-29T17:53:48;4.10;;;0.80;;
54959;SDS011;40860;51.710;8.736;2022-12-29T17:57:53;2.88;;;1.10;;
54959;SDS011;40860;51.710;8.736;2022-12-29T18:01:57;3.75;;;1.08;;
54959;SDS011;40860;51.710;8.736;2022-12-29T18:06:00;3.17;;;1.00;;
54959;SDS011;40860;51.710;8.736;2022-12-29T18:10:05;3.17;;;1.00;;
54959;SDS011;40860;51.710;8.736;2022-12-29T18:14:11;2.63;;;0.85;;
54959;SDS011;40860;51.710;8.736;2022-12-29T18:18:15;3.85;;;1.10;;
54959;SDS011;40860;51.710;8.736;2022-12-29T18:22:22;3.35;;;1.10;;
54959;SDS011;40860;51.710;8.736;2022-12-29T18:26:29;3.10;;;1.08;;
54959;SDS011;40860;51.710;8.736;2022-12-29T18:30:37;5.90;;;1.25;;
54959;SDS011;40860;51.710;8.736;2022-12-29T18:34:39;6.18;;;1.60;;
54959;SDS011;40860;51.710;8.736;2022-12-29T18:38:43;6.30;;;1.48;;
54959;SDS011;40860;51.710;8.736;2022-12-29T18:42:46;4.60;;;1.17;;
54959;SDS011;40860;51.710;8.736;2022-12-29T18:46:50;5.65;;;1.67;;
54959;SDS011;40860;51.710;8.736;2022-12-29T18:50:55;5.30;;;1.40;;
54959;SDS011;40860;51.710;8.736;2022-12-29T18:54:57;4.22;;;1.67;;
54959;SDS011;40860;51.710;8.736;2022-12-29T18:59:00;5.70;;;1.40;;
54959;SDS011;40860;51.710;8.736;2022-12-29T19:03:04;4.93;;;1.45;;
54959;SDS011;40860;51.710;8.736;2022-12-29T19:07:07;5.55;;;1.70;;
54959;SDS011;40860;51.710;8.736;2022-12-29T19:11:10;5.07;;;1.45;;
54959;SDS011;40860;51.710;8.736;2022-12-29T19:15:15;5.88;;;1.60;;
54959;SDS011;40860;51.710;8.736;2022-12-29T19:19:24;8.32;;;2.38;;
54959;SDS011;40860;51.710;8.736;2022-12-29T19:23:27;6.93;;;2.22;;
54959;SDS011;40860;51.710;8.736;2022-12-29T19:27:30;6.53;;;1.80;;
54959;SDS011;40860;51.710;8.736;2022-12-29T19:31:33;4.05;;;1.27;;
54959;SDS011;40860;51.710;8.736;2022-12-29T19:35:41;2.15;;;0.98;;
54959;SDS011;40860;51.710;8.736;2022-12-29T19:39:44;3.15;;;1.10;;
54959;SDS011;40860;51.710;8.736;2022-12-29T19:43:48;3.97;;;1.48;;
54959;SDS011;40860;51.710;8.736;2022-12-29T19:47:51;3.83;;;1.52;;
54959;SDS011;40860;51.710;8.736;2022-12-29T19:51:56;3.85;;;1.23;;
54959;SDS011;40860;51.710;8.736;2022-12-29T19:56:00;7.90;;;2.60;;
54959;SDS011;40860;51.710;8.736;2022-12-29T20:00:05;3.80;;;1.58;;
54959;SDS011;40860;51.710;8.736;2022-12-29T20:04:12;4.45;;;1.80;;
54959;SDS011;40860;51.710;8.736;2022-12-29T20:08:16;3.83;;;1.83;;
54959;SDS011;40860;51.710;8.736;2022-12-29T20:12:19;3.95;;;1.67;;
54959;SDS011;40860;51.710;8.736;2022-12-29T20:16:29;3.55;;;2.08;;
54959;SDS011;40860;51.710;8.736;2022-12-29T20:20:32;6.25;;;2.13;;
54959;SDS011;40860;51.710;8.736;2022-12-29T20:24:37;5.97;;;1.95;;
54959;SDS011;40860;51.710;8.736;2022-12-29T20:28:48;7.57;;;2.53;;
54959;SDS011;40860;51.710;8.736;2022-12-29T20:32:52;6.88;;;2.10;;
54959;SDS011;40860;51.710;8.736;2022-12-29T20:36:54;6.55;;;2.33;;
54959;SDS011;40860;51.710;8.736;2022-12-29T20:40:59;4.80;;;2.22;;
54959;SDS011;40860;51.710;8.736;2022-12-29T20:45:02;8.90;;;2.65;;
54959;SDS011;40860;51.710;8.736;2022-12-29T20:49:05;10.70;;;2.85;;
54959;SDS011;40860;51.710;8.736;2022-12-29T20:53:08;13.10;;;2.42;;
54959;SDS011;40860;51.710;8.736;2022-12-29T20:57:13;7.75;;;2.10;;
54959;SDS011;40860;51.710;8.736;2022-12-29T21:01:18;7.70;;;2.60;;
54959;SDS011;40860;51.710;8.736;2022-12-29T21:05:22;8.02;;;2.30;;
54959;SDS011;40860;51.710;8.736;2022-12-29T21:09:26;7.70;;;2.03;;
54959;SDS011;40860;51.710;8.736;2022-12-29T21:13:30;9.23;;;2.33;;
54959;SDS011;40860;51.710;8.736;2022-12-29T21:17:33;6.78;;;2.35;;
54959;SDS011;40860;51.710;8.736;2022-12-29T21:21:36;8.68;;;1.88;;
54959;SDS011;40860;51.710;8.736;2022-12-29T21:25:41;7.90;;;2.38;;
54959;SDS011;40860;51.710;8.736;2022-12-29T21:29:46;7.13;;;1.95;;
54959;SDS011;40860;51.710;8.736;2022-12-29T21:33:49;8.98;;;2.47;;
54959;SDS011;40860;51.710;8.736;2022-12-29T21:37:52;9.65;;;2.25;;
54959;SDS011;40860;51.710;8.736;2022-12-29T21:41:55;11.63;;;2.08;;
54959;SDS011;40860;51.710;8.736;2022-12-29T21:46:02;9.25;;;2.38;;
54959;SDS011;40860;51.710;8.736;2022-12-29T21:50:05;7.20;;;2.33;;
54959;SDS011;40860;51.710;8.736;2022-12-29T21:54:08;12.00;;;2.53;;
54959;SDS011;40860;51.710;8.736;2022-12-29T21:58:29;5.90;;;2.15;;
54959;SDS011;40860;51.710;8.736;2022-12-29T22:02:51;9.30;;;2.13;;
54959;SDS011;40860;51.710;8.736;2022-12-29T22:07:20;9.52;;;2.70;;
54959;SDS011;40860;51.710;8.736;2022-12-29T22:11:41;8.80;;;2.33;;
54959;SDS011;40860;51.710;8.736;2022-12-29T22:16:01;11.40;;;2.20;;
54959;SDS011;40860;51.710;8.736;2022-12-29T22:20:06;9.10;;;2.20;;
54959;SDS011;40860;51.710;8.736;2022-12-29T22:24:09;9.48;;;2.50;;
54959;SDS011;40860;51.710;8.736;2022-12-29T22:28:13;9.77;;;2.25;;
54959;SDS011;40860;51.710;8.736;2022-12-29T22:32:16;13.02;;;2.60;;
54959;SDS011;40860;51.710;8.736;2022-12-29T22:36:20;8.77;;;2.50;;
54959;SDS011;40860;51.710;8.736;2022-12-29T22:40:24;8.52;;;2.30;;
54959;SDS011;40860;51.710;8.736;2022-12-29T22:44:27;9.70;;;2.45;;
54959;SDS011;40860;51.710;8.736;2022-12-29T22:48:30;13.10;;;2.40;;
54959;SDS011;40860;51.710;8.736;2022-12-29T22:52:34;10.25;;;2.38;;
54959;SDS011;40860;51.710;8.736;2022-12-29T22:56:37;7.80;;;2.10;;
54959;SDS011;40860;51.710;8.736;2022-12-29T23:00:42;11.23;;;2.75;;
54959;SDS011;40860;51.710;8.736;2022-12-29T23:04:45;12.50;;;2.58;;
54959;SDS011;40860;51.710;8.736;2022-12-29T23:09:05;9.98;;;2.42;;
54959;SDS011;40860;51.710;8.736;2022-12-29T23:13:09;6.90;;;2.35;;
54959;SDS011;40860;51.710;8.736;2022-12-29T23:17:11;14.25;;;3.13;;
54959;SDS011;40860;51.710;8.736;2022-12-29T23:21:14;10.13;;;2.20;;
54959;SDS011;40860;51.710;8.736;2022-12-29T23:25:20;9.18;;;2.45;;
54959;SDS011;40860;51.710;8.736;2022-12-29T23:29:23;12.02;;;2.30;;
54959;SDS011;40860;51.710;8.736;2022-12-29T23:33:25;11.35;;;2.58;;
54959;SDS011;40860;51.710;8.736;2022-12-29T23:37:28;6.65;;;2.20;;
54959;SDS011;40860;51.710;8.736;2022-12-29T23:41:33;11.35;;;2.70;;
54959;SDS011;40860;51.710;8.736;2022-12-29T23:45:36;11.38;;;3.22;;
54959;SDS011;40860;51.710;8.736;2022-12-29T23:49:39;10.48;;;2.40;;
54959;SDS011;40860;51.710;8.736;2022-12-29T23:53:42;6.72;;;1.85;;
54959;SDS011;40860;51.710;8.736;2022-12-29T23:57:47;10.18;;;2.35;;
